Stillwater, Minnesota
Current Conditions -  °F | °C
As of 3:31 PM on Wednesday 17 Dec 2014 (Local Time) from K21D Reporting Station
Overcast Overcast  
Wind Chill: 11°   Ceiling: 1900
Heat Index: 18°   Visibility: 10mi
Dew Point: 12°   Wind: 5mph
Humidity: 79%   Direction: 10°N
Pressure: 30.31"   Gusts: NA
Location:  45.06°N, 92.81°W
Report Text: K21D 172131Z AUTO 01004KT 10SM OVC019 M08/M11 A3031 RMK AO2
Loading
Personal Weather Stations






























Interactive Weather Map New forecast layout! Learn more

10-Day Weather Forecast

Advertisements
Track Severe Weather on mobile